createdAt,value
2019-06-27T00:01:41.735Z,101851.62
2019-06-27T00:04:11.409Z,101855.30
2019-06-27T00:06:42.248Z,101862.20
2019-06-27T00:09:13.225Z,101858.52
2019-06-27T00:11:42.850Z,101853.30
2019-06-27T00:14:12.863Z,101856.63
2019-06-27T00:16:42.568Z,101861.53
2019-06-27T00:19:12.237Z,101864.55
2019-06-27T00:21:41.869Z,101874.39
2019-06-27T00:24:11.525Z,101873.82
2019-06-27T00:26:56.205Z,101877.97
2019-06-27T00:29:13.595Z,101879.55
2019-06-27T00:31:43.222Z,101875.36
2019-06-27T00:34:13.888Z,101876.50
2019-06-27T00:36:43.633Z,101869.77
2019-06-27T00:39:15.287Z,101886.66
2019-06-27T00:41:44.915Z,101878.03
2019-06-27T00:44:14.507Z,101886.14
2019-06-27T00:46:44.169Z,101893.33
2019-06-27T00:49:13.945Z,101889.41
2019-06-27T00:51:45.309Z,101891.89
2019-06-27T00:54:15.208Z,101893.84
2019-06-27T00:56:44.931Z,101894.98
2019-06-27T00:59:14.527Z,101895.22
2019-06-27T01:01:57.411Z,101892.53
2019-06-27T01:04:27.161Z,101897.83
2019-06-27T01:06:56.896Z,101886.39
2019-06-27T01:09:26.626Z,101891.23
2019-06-27T01:11:56.249Z,101890.96
2019-06-27T01:14:28.496Z,101891.55
2019-06-27T01:16:58.119Z,101881.41
2019-06-27T01:19:27.754Z,101891.51
2019-06-27T01:21:58.505Z,101892.12
2019-06-27T01:24:28.269Z,101895.95
2019-06-27T01:26:59.047Z,101888.36
2019-06-27T01:29:31.889Z,101888.20
2019-06-27T01:32:04.735Z,101883.24
2019-06-27T01:34:35.382Z,101884.34
2019-06-27T01:37:07.407Z,101884.44
2019-06-27T01:39:37.481Z,101879.05
2019-06-27T01:42:08.424Z,101887.77
2019-06-27T01:44:49.469Z,101890.16
2019-06-27T01:47:23.145Z,101887.91
2019-06-27T01:49:52.768Z,101895.08
2019-06-27T01:52:24.500Z,101896.09
2019-06-27T01:54:54.186Z,101890.81
2019-06-27T01:57:23.884Z,101890.25
2019-06-27T02:00:00.429Z,101889.29
2019-06-27T02:02:30.145Z,101884.30
2019-06-27T02:04:59.797Z,101887.96
2019-06-27T02:07:29.813Z,101889.38
2019-06-27T02:10:00.417Z,101892.52
2019-06-27T02:12:30.057Z,101890.81
2019-06-27T02:14:59.708Z,101884.83
2019-06-27T02:17:29.348Z,101896.19
2019-06-27T02:19:59.330Z,101900.92
2019-06-27T02:22:29.088Z,101897.74
2019-06-27T02:24:58.734Z,101904.90
2019-06-27T02:27:42.401Z,101894.44
2019-06-27T02:30:13.323Z,101901.17
2019-06-27T02:32:43.138Z,101900.38
2019-06-27T02:35:12.995Z,101903.02
2019-06-27T02:37:42.638Z,101902.10
2019-06-27T02:40:13.479Z,101905.13
2019-06-27T02:42:46.153Z,101908.53
2019-06-27T02:45:16.247Z,101912.75
2019-06-27T02:47:46.882Z,101915.61
2019-06-27T02:50:16.540Z,101912.30
2019-06-27T02:52:46.160Z,101918.50
2019-06-27T02:55:15.846Z,101918.75
2019-06-27T02:57:45.972Z,101917.13
2019-06-27T03:00:16.196Z,101918.05
2019-06-27T03:02:45.827Z,101918.91
2019-06-27T03:05:16.996Z,101925.72
2019-06-27T03:07:46.662Z,101933.79
2019-06-27T03:10:18.577Z,101922.47
2019-06-27T03:12:48.345Z,101921.20
2019-06-27T03:15:19.149Z,101927.74
2019-06-27T03:17:48.802Z,101924.19
2019-06-27T03:20:18.896Z,101934.89
2019-06-27T03:22:48.504Z,101931.95
2019-06-27T03:25:18.109Z,101933.63
2019-06-27T03:27:50.803Z,101933.48
2019-06-27T03:30:21.474Z,101929.13
2019-06-27T03:32:54.231Z,101917.64
2019-06-27T03:35:24.018Z,101928.20
2019-06-27T03:37:54.750Z,101925.66
2019-06-27T03:40:24.433Z,101915.31
2019-06-27T03:42:54.205Z,101917.64
2019-06-27T03:45:23.972Z,101924.19
2019-06-27T03:47:53.646Z,101923.48
2019-06-27T03:50:30.372Z,101925.34
2019-06-27T03:53:02.098Z,101929.00
2019-06-27T03:55:31.861Z,101933.67
2019-06-27T03:58:02.503Z,101934.64
2019-06-27T04:00:34.426Z,101935.75
2019-06-27T04:03:05.269Z,101938.39
2019-06-27T04:05:35.007Z,101941.73
2019-06-27T04:08:04.693Z,101940.72
2019-06-27T04:10:34.695Z,101931.54
2019-06-27T04:13:05.544Z,101935.81
2019-06-27T04:15:35.640Z,101940.72
2019-06-27T04:18:05.592Z,101946.00
2019-06-27T04:20:35.272Z,101938.09
2019-06-27T04:23:05.001Z,101936.36
2019-06-27T04:25:34.673Z,101940.33
2019-06-27T04:28:05.411Z,101935.81
2019-06-27T04:30:35.101Z,101935.98
2019-06-27T04:33:04.898Z,101943.11
2019-06-27T04:35:35.485Z,101945.83
2019-06-27T04:38:05.253Z,101949.80
2019-06-27T04:40:35.097Z,101936.92
2019-06-27T04:43:06.066Z,101935.66
2019-06-27T04:45:36.026Z,101937.29
2019-06-27T04:48:05.765Z,101941.71
2019-06-27T04:50:35.518Z,101946.83
2019-06-27T04:53:08.393Z,101945.97
2019-06-27T04:55:40.026Z,101945.30
2019-06-27T04:58:09.757Z,101952.05
2019-06-27T05:00:52.130Z,101941.71
2019-06-27T05:03:21.792Z,101943.13
2019-06-27T05:05:51.527Z,101943.98
2019-06-27T05:08:21.238Z,101949.41
2019-06-27T05:10:50.898Z,101947.84
2019-06-27T05:13:20.513Z,101946.92
2019-06-27T05:15:50.204Z,101939.16
2019-06-27T05:18:21.545Z,101951.44
2019-06-27T05:20:51.193Z,101958.34
2019-06-27T05:23:36.572Z,101964.55
2019-06-27T05:25:57.479Z,101959.41
2019-06-27T05:28:27.244Z,101954.14
2019-06-27T05:30:57.010Z,101966.63
2019-06-27T05:33:26.882Z,101973.16
2019-06-27T05:36:04.402Z,101963.61
2019-06-27T05:38:34.130Z,101972.23
2019-06-27T05:41:03.948Z,101974.64
2019-06-27T05:43:33.604Z,101974.95
2019-06-27T05:46:03.298Z,101972.47
2019-06-27T05:48:32.931Z,101960.80
2019-06-27T05:51:02.586Z,101970.95
2019-06-27T05:53:32.228Z,101968.86
2019-06-27T05:56:01.888Z,101967.21
2019-06-27T05:58:31.585Z,101971.70
2019-06-27T06:01:01.261Z,101964.63
2019-06-27T06:03:31.138Z,101966.19
2019-06-27T06:06:00.847Z,101962.43
2019-06-27T06:08:31.415Z,101961.34
2019-06-27T06:11:01.045Z,101963.98
2019-06-27T06:13:30.819Z,101960.48
2019-06-27T06:16:01.302Z,101976.26
2019-06-27T06:18:32.375Z,101971.59
2019-06-27T06:21:02.100Z,101980.91
2019-06-27T06:23:31.891Z,101980.91
2019-06-27T06:26:01.492Z,101986.89
2019-06-27T06:28:31.119Z,101986.68
2019-06-27T06:31:01.858Z,101982.86
2019-06-27T06:33:31.500Z,101984.22
2019-06-27T06:36:01.253Z,101995.73
2019-06-27T06:38:30.983Z,102000.59
2019-06-27T06:41:00.699Z,102001.81
2019-06-27T06:43:31.326Z,102008.05
2019-06-27T06:46:00.986Z,102006.03
2019-06-27T06:48:31.463Z,102005.72
2019-06-27T06:51:01.180Z,102007.76
2019-06-27T06:53:30.914Z,102003.33
2019-06-27T06:56:00.555Z,102013.05
2019-06-27T06:58:30.174Z,102006.66
2019-06-27T07:01:02.095Z,102008.12
2019-06-27T07:03:31.149Z,102008.95
2019-06-27T07:06:00.914Z,102011.09
2019-06-27T07:08:30.675Z,102011.53
2019-06-27T07:11:00.400Z,102010.81
2019-06-27T07:13:30.197Z,102010.09
2019-06-27T07:15:59.837Z,102006.98
2019-06-27T07:18:29.546Z,102013.03
2019-06-27T07:20:59.315Z,102009.13
2019-06-27T07:23:30.654Z,101991.02
2019-06-27T07:26:00.357Z,101996.95
2019-06-27T07:28:30.077Z,102001.75
2019-06-27T07:30:59.815Z,101993.82
2019-06-27T07:33:29.455Z,101998.73
2019-06-27T07:36:00.383Z,102001.18
2019-06-27T07:38:31.025Z,102008.00
2019-06-27T07:41:00.726Z,102010.01
2019-06-27T07:43:30.445Z,102004.41
2019-06-27T07:46:00.259Z,102010.86
2019-06-27T07:48:30.089Z,102007.58
2019-06-27T07:51:00.082Z,102012.55
2019-06-27T07:53:29.901Z,102003.75
2019-06-27T07:55:59.672Z,102001.79
2019-06-27T07:58:29.536Z,101999.17
2019-06-27T08:00:59.256Z,102003.63
2019-06-27T08:03:28.991Z,101997.48
2019-06-27T08:05:58.705Z,101991.39
2019-06-27T08:08:28.329Z,101994.58
2019-06-27T08:10:57.972Z,101995.03
2019-06-27T08:13:27.768Z,102002.98
2019-06-27T08:15:57.716Z,101991.02
2019-06-27T08:18:28.491Z,101994.44
2019-06-27T08:20:58.296Z,101997.41
2019-06-27T08:23:40.912Z,101990.70
2019-06-27T08:26:00.309Z,101984.98
2019-06-27T08:28:30.164Z,101978.64
2019-06-27T08:31:00.079Z,101977.97
2019-06-27T08:33:29.835Z,101974.58
2019-06-27T08:36:00.925Z,101975.12
2019-06-27T08:38:30.679Z,101976.50
2019-06-27T08:41:01.031Z,101970.31
2019-06-27T08:43:31.572Z,101967.88
2019-06-27T08:46:01.216Z,101967.40
2019-06-27T08:48:30.881Z,101967.20
2019-06-27T08:51:01.182Z,101973.88
2019-06-27T08:53:31.005Z,101975.40
2019-06-27T08:56:00.704Z,101975.40
2019-06-27T08:58:30.437Z,101976.84
2019-06-27T09:01:00.114Z,101978.56
2019-06-27T09:03:29.844Z,101970.44
2019-06-27T09:06:05.896Z,101979.66
2019-06-27T09:08:35.607Z,101981.03
2019-06-27T09:11:05.385Z,101973.44
2019-06-27T09:13:35.105Z,101984.21
2019-06-27T09:16:04.987Z,101980.16
2019-06-27T09:18:37.592Z,101973.23
2019-06-27T09:21:07.816Z,101969.28
2019-06-27T09:23:37.859Z,101977.87
2019-06-27T09:26:08.162Z,101968.20
2019-06-27T09:28:38.602Z,101968.36
2019-06-27T09:31:12.289Z,101966.71
2019-06-27T09:33:42.105Z,101979.67
2019-06-27T09:36:12.051Z,101971.99
2019-06-27T09:38:42.590Z,101972.08
2019-06-27T09:41:12.502Z,101970.73
2019-06-27T09:43:42.386Z,101959.14
2019-06-27T09:46:12.580Z,101966.86
2019-06-27T09:48:42.299Z,101960.34
2019-06-27T09:51:11.937Z,101964.18
2019-06-27T09:53:42.167Z,101961.92
2019-06-27T09:56:11.960Z,101962.47
2019-06-27T09:58:41.676Z,101961.92
2019-06-27T10:01:11.590Z,101952.80
2019-06-27T10:03:41.385Z,101936.83
2019-06-27T10:06:11.129Z,101952.19
2019-06-27T10:08:40.904Z,101948.19
2019-06-27T10:11:11.638Z,101944.72
2019-06-27T10:13:41.278Z,101941.45
2019-06-27T10:16:11.011Z,101937.92
2019-06-27T10:18:40.660Z,101945.58
2019-06-27T10:21:10.381Z,101942.02
2019-06-27T10:23:40.027Z,101945.98
2019-06-27T10:26:11.377Z,101946.98
2019-06-27T10:28:41.091Z,101940.27
2019-06-27T10:31:10.755Z,101952.81
2019-06-27T10:33:40.426Z,101940.28
2019-06-27T10:36:10.391Z,101937.89
2019-06-27T10:38:40.150Z,101950.84
2019-06-27T10:41:09.800Z,101942.13
2019-06-27T10:43:39.533Z,101947.77
2019-06-27T10:46:10.238Z,101930.92
2019-06-27T10:48:40.817Z,101940.89
2019-06-27T10:51:10.447Z,101938.95
2019-06-27T10:53:40.704Z,101938.23
2019-06-27T10:56:14.413Z,101930.14
2019-06-27T10:58:44.060Z,101932.66
2019-06-27T11:01:13.736Z,101930.23
2019-06-27T11:03:43.454Z,101934.73
2019-06-27T11:06:13.148Z,101938.36
2019-06-27T11:08:42.827Z,101938.71
2019-06-27T11:11:12.454Z,101927.45
2019-06-27T11:13:54.847Z,101931.87
2019-06-27T11:16:13.802Z,101937.82
2019-06-27T11:18:43.487Z,101925.91
2019-06-27T11:21:14.092Z,101925.17
2019-06-27T11:23:43.869Z,101927.91
2019-06-27T11:26:16.095Z,101918.11
2019-06-27T11:28:45.430Z,101918.00
2019-06-27T11:31:15.066Z,101908.80
2019-06-27T11:33:45.654Z,101911.61
2019-06-27T11:36:16.935Z,101903.70
2019-06-27T11:38:46.621Z,101909.90
2019-06-27T11:41:16.221Z,101908.94
2019-06-27T11:43:46.004Z,101901.16
2019-06-27T11:46:15.746Z,101911.22
2019-06-27T11:48:46.000Z,101903.93
2019-06-27T11:51:15.713Z,101901.89
2019-06-27T11:53:46.391Z,101900.69
2019-06-27T11:56:16.337Z,101900.77
2019-06-27T11:58:46.764Z,101900.77
2019-06-27T12:01:16.958Z,101884.13
2019-06-27T12:03:49.748Z,101893.45
2019-06-27T12:06:18.741Z,101887.30
2019-06-27T12:08:49.255Z,101890.25
2019-06-27T12:11:19.690Z,101890.25
2019-06-27T12:13:49.770Z,101888.91
2019-06-27T12:16:19.823Z,101880.05
2019-06-27T12:18:49.707Z,101873.37
2019-06-27T12:21:19.987Z,101875.16
2019-06-27T12:23:54.133Z,101870.63
2019-06-27T12:26:24.006Z,101864.44
2019-06-27T12:28:53.926Z,101868.85
2019-06-27T12:31:24.071Z,101860.06
2019-06-27T12:34:06.270Z,101858.28
2019-06-27T12:36:26.051Z,101859.84
2019-06-27T12:38:57.135Z,101866.39
2019-06-27T12:41:27.573Z,101859.59
2019-06-27T12:44:07.770Z,101861.88
2019-06-27T12:46:37.840Z,101848.66
2019-06-27T12:49:08.297Z,101844.17
2019-06-27T12:51:38.424Z,101846.59
2019-06-27T12:54:13.861Z,101851.69
2019-06-27T12:56:44.061Z,101853.81
2019-06-27T12:59:14.202Z,101842.97
2019-06-27T13:01:47.608Z,101840.41
2019-06-27T13:04:23.315Z,101843.87
2019-06-27T13:06:49.327Z,101845.95
2019-06-27T13:09:19.703Z,101830.13
2019-06-27T13:11:51.734Z,101841.06
2019-06-27T13:14:27.812Z,101831.23
2019-06-27T13:16:57.620Z,101817.67
2019-06-27T13:19:44.662Z,101828.89
2019-06-27T13:22:14.402Z,101815.08
2019-06-27T13:24:44.533Z,101824.33
2019-06-27T13:27:14.919Z,101812.14
2019-06-27T13:29:45.658Z,101816.61
2019-06-27T13:32:15.953Z,101811.22
2019-06-27T13:34:46.333Z,101813.37
2019-06-27T13:37:16.101Z,101809.47
2019-06-27T13:39:46.722Z,101804.35
2019-06-27T13:42:16.594Z,101804.72
2019-06-27T13:44:46.888Z,101795.76
2019-06-27T13:47:20.088Z,101794.91
2019-06-27T13:49:48.083Z,101798.58
2019-06-27T13:52:19.108Z,101797.84
2019-06-27T13:54:49.480Z,101789.80
2019-06-27T13:57:19.386Z,101785.59
2019-06-27T13:59:49.403Z,101791.44
2019-06-27T14:02:20.118Z,101785.48
2019-06-27T14:04:57.142Z,101771.84
2019-06-27T14:07:22.609Z,101778.66
2019-06-27T14:09:57.083Z,101781.03
2019-06-27T14:12:24.954Z,101780.76
2019-06-27T14:14:59.618Z,101773.57
2019-06-27T14:17:26.763Z,101772.73
2019-06-27T14:20:18.363Z,101777.36
2019-06-27T14:22:48.485Z,101768.75
2019-06-27T14:25:18.316Z,101772.90
2019-06-27T14:27:48.082Z,101766.04
2019-06-27T14:30:19.805Z,101774.06
2019-06-27T14:32:53.157Z,101770.80
2019-06-27T14:35:21.245Z,101773.84
2019-06-27T14:37:51.117Z,101765.13
2019-06-27T14:40:22.516Z,101768.98
2019-06-27T14:42:53.216Z,101773.68
2019-06-27T14:45:25.317Z,101763.52
2019-06-27T14:47:56.742Z,101777.88
2019-06-27T14:50:27.283Z,101763.80
2019-06-27T14:52:57.674Z,101765.72
2019-06-27T14:55:28.183Z,101762.94
2019-06-27T14:57:58.541Z,101763.52
2019-06-27T15:00:28.968Z,101762.09
2019-06-27T15:02:58.841Z,101745.71
2019-06-27T15:05:32.943Z,101756.69
2019-06-27T15:08:01.309Z,101756.50
2019-06-27T15:10:31.706Z,101753.67
2019-06-27T15:13:02.014Z,101763.41
2019-06-27T15:15:33.303Z,101745.13
2019-06-27T15:18:03.589Z,101736.95
2019-06-27T15:20:33.290Z,101736.25
2019-06-27T15:23:03.498Z,101735.98
2019-06-27T15:25:34.130Z,101745.86
2019-06-27T15:28:04.408Z,101743.33
2019-06-27T15:30:34.089Z,101735.44
2019-06-27T15:33:03.905Z,101732.18
2019-06-27T15:35:50.905Z,101743.45
2019-06-27T15:38:05.829Z,101737.95
2019-06-27T15:40:35.556Z,101740.62
2019-06-27T15:43:05.305Z,101734.58
2019-06-27T15:45:35.021Z,101734.44
2019-06-27T15:48:04.931Z,101716.40
2019-06-27T15:50:35.737Z,101727.81
2019-06-27T15:53:06.111Z,101731.61
2019-06-27T15:55:36.536Z,101722.30
2019-06-27T15:58:07.206Z,101726.41
2019-06-27T16:00:39.346Z,101726.82
2019-06-27T16:03:08.517Z,101717.09
2019-06-27T16:05:38.368Z,101714.97
2019-06-27T16:08:08.387Z,101717.40
2019-06-27T16:10:38.572Z,101723.72
2019-06-27T16:13:08.465Z,101719.65
2019-06-27T16:15:38.714Z,101720.50
2019-06-27T16:18:09.208Z,101708.65
2019-06-27T16:20:39.622Z,101708.25
2019-06-27T16:23:09.368Z,101718.80
2019-06-27T16:25:39.784Z,101708.51
2019-06-27T16:28:10.573Z,101703.45
2019-06-27T16:30:40.422Z,101701.48
2019-06-27T16:33:10.177Z,101709.52
2019-06-27T16:35:40.533Z,101709.80
2019-06-27T16:38:11.105Z,101713.44
2019-06-27T16:40:40.873Z,101711.56
2019-06-27T16:43:12.353Z,101708.59
2019-06-27T16:45:42.699Z,101703.39
2019-06-27T16:48:13.176Z,101705.25
2019-06-27T16:50:43.504Z,101708.92
2019-06-27T16:53:14.301Z,101707.06
2019-06-27T16:55:46.596Z,101713.54
2019-06-27T16:58:16.832Z,101714.00
2019-06-27T17:00:46.791Z,101709.36
2019-06-27T17:03:16.473Z,101707.66
2019-06-27T17:05:47.017Z,101714.98
2019-06-27T17:08:16.951Z,101712.14
2019-06-27T17:10:47.288Z,101712.69
2019-06-27T17:13:17.599Z,101717.34
2019-06-27T17:15:47.902Z,101719.56
2019-06-27T17:18:17.794Z,101720.56
2019-06-27T17:20:47.476Z,101719.87
2019-06-27T17:23:17.797Z,101727.70
2019-06-27T17:25:47.614Z,101718.55
2019-06-27T17:28:17.276Z,101715.28
2019-06-27T17:30:47.162Z,101719.66
2019-06-27T17:33:17.507Z,101720.47
2019-06-27T17:35:47.898Z,101717.42
2019-06-27T17:38:18.358Z,101722.77
2019-06-27T17:40:48.197Z,101715.52
2019-06-27T17:43:18.522Z,101725.42
2019-06-27T17:45:48.860Z,101719.72
2019-06-27T17:48:18.687Z,101713.85
2019-06-27T17:50:48.434Z,101719.31
2019-06-27T17:53:18.666Z,101722.58
2019-06-27T17:55:48.996Z,101731.63
2019-06-27T17:58:18.728Z,101730.75
2019-06-27T18:00:49.414Z,101725.21
2019-06-27T18:03:19.747Z,101728.98
2019-06-27T18:05:50.365Z,101733.27
2019-06-27T18:08:20.149Z,101735.34
2019-06-27T18:10:49.870Z,101726.68
2019-06-27T18:13:19.585Z,101735.73
2019-06-27T18:15:49.232Z,101738.19
2019-06-27T18:18:19.570Z,101728.52
2019-06-27T18:20:49.778Z,101732.64
2019-06-27T18:23:19.455Z,101735.20
2019-06-27T18:25:49.262Z,101739.11
2019-06-27T18:28:19.614Z,101738.86
2019-06-27T18:30:49.315Z,101739.11
2019-06-27T18:33:19.007Z,101736.05
2019-06-27T18:35:48.802Z,101738.50
2019-06-27T18:38:19.126Z,101732.45
2019-06-27T18:40:49.431Z,101742.89
2019-06-27T18:43:19.112Z,101732.61
2019-06-27T18:45:48.960Z,101728.02
2019-06-27T18:48:18.714Z,101736.35
2019-06-27T18:50:49.456Z,101732.97
2019-06-27T18:53:19.222Z,101734.30
2019-06-27T18:55:49.544Z,101735.16
2019-06-27T18:58:19.223Z,101730.79
2019-06-27T19:00:49.677Z,101735.64
2019-06-27T19:03:20.231Z,101736.49
2019-06-27T19:05:54.663Z,101734.87
2019-06-27T19:08:54.102Z,101732.83
2019-06-27T19:11:24.274Z,101727.01
2019-06-27T19:13:58.583Z,101737.51
2019-06-27T19:16:31.729Z,101740.77
2019-06-27T19:19:11.500Z,101745.56
2019-06-27T19:21:42.771Z,101747.23
2019-06-27T19:24:15.213Z,101754.72
2019-06-27T19:26:46.842Z,101751.22
2019-06-27T19:29:16.598Z,101755.37
2019-06-27T19:31:46.476Z,101758.87
2019-06-27T19:34:16.463Z,101754.52
2019-06-27T19:36:46.187Z,101754.02
2019-06-27T19:39:16.098Z,101756.27
2019-06-27T19:41:46.073Z,101761.20
2019-06-27T19:44:15.886Z,101766.12
2019-06-27T19:46:45.600Z,101766.69
2019-06-27T19:49:15.422Z,101772.66
2019-06-27T19:51:45.339Z,101771.42
2019-06-27T19:54:15.262Z,101773.23
2019-06-27T19:56:45.053Z,101777.91
2019-06-27T19:59:14.813Z,101781.00
2019-06-27T20:01:44.733Z,101777.95
2019-06-27T20:04:14.428Z,101784.64
2019-06-27T20:06:44.205Z,101787.09
2019-06-27T20:09:13.871Z,101790.90
2019-06-27T20:11:43.645Z,101790.29
2019-06-27T20:14:13.671Z,101791.56
2019-06-27T20:16:43.399Z,101794.00
2019-06-27T20:19:13.496Z,101796.34
2019-06-27T20:21:43.110Z,101795.81
2019-06-27T20:24:12.822Z,101802.31
2019-06-27T20:26:42.589Z,101798.27
2019-06-27T20:29:12.234Z,101801.86
2019-06-27T20:31:41.941Z,101804.61
2019-06-27T20:34:11.554Z,101812.89
2019-06-27T20:36:41.227Z,101811.22
2019-06-27T20:39:10.884Z,101807.05
2019-06-27T20:41:40.513Z,101810.86
2019-06-27T20:44:10.224Z,101814.69
2019-06-27T20:46:39.956Z,101818.72
2019-06-27T20:49:09.661Z,101815.38
2019-06-27T20:51:39.345Z,101818.23
2019-06-27T20:54:12.098Z,101809.53
2019-06-27T20:56:40.520Z,101814.92
2019-06-27T20:59:10.559Z,101818.95
2019-06-27T21:01:40.333Z,101820.20
2019-06-27T21:04:09.993Z,101817.95
2019-06-27T21:06:39.718Z,101814.56
2019-06-27T21:09:09.539Z,101821.86
2019-06-27T21:11:39.148Z,101818.12
2019-06-27T21:14:09.412Z,101826.77
2019-06-27T21:16:39.196Z,101822.80
2019-06-27T21:19:08.947Z,101823.84
2019-06-27T21:21:38.655Z,101819.71
2019-06-27T21:24:08.418Z,101832.38
2019-06-27T21:26:38.678Z,101832.02
2019-06-27T21:29:08.447Z,101836.17
2019-06-27T21:31:38.177Z,101833.91
2019-06-27T21:34:07.886Z,101833.94
2019-06-27T21:36:37.654Z,101827.48
2019-06-27T21:39:08.217Z,101833.53
2019-06-27T21:41:37.986Z,101833.55
2019-06-27T21:44:07.786Z,101829.56
2019-06-27T21:46:37.507Z,101830.53
2019-06-27T21:49:11.228Z,101835.61
2019-06-27T21:51:39.328Z,101835.42
2019-06-27T21:54:09.043Z,101836.57
2019-06-27T21:56:38.785Z,101832.32
2019-06-27T21:59:08.461Z,101834.18
2019-06-27T22:01:38.368Z,101841.95
2019-06-27T22:04:08.176Z,101839.09
2019-06-27T22:06:37.844Z,101841.92
2019-06-27T22:09:23.439Z,101849.86
2019-06-27T22:11:40.327Z,101844.06
2019-06-27T22:14:10.879Z,101844.17
2019-06-27T22:16:40.657Z,101838.88
2019-06-27T22:19:10.442Z,101840.67
2019-06-27T22:21:40.209Z,101836.84
2019-06-27T22:24:09.863Z,101842.55
2019-06-27T22:26:39.669Z,101845.20
2019-06-27T22:29:09.360Z,101845.66
2019-06-27T22:31:39.083Z,101843.73
2019-06-27T22:34:08.870Z,101841.51
2019-06-27T22:36:38.791Z,101855.17
2019-06-27T22:39:39.602Z,101853.55
2019-06-27T22:42:15.375Z,101851.94
2019-06-27T22:45:02.935Z,101856.54
2019-06-27T22:47:50.641Z,101849.22
2019-06-27T22:50:35.956Z,101849.55
2019-06-27T22:53:07.581Z,101843.84
2019-06-27T22:55:37.479Z,101848.63
2019-06-27T22:58:07.375Z,101844.08
2019-06-27T23:00:38.304Z,101852.33
2019-06-27T23:03:08.115Z,101846.77
2019-06-27T23:05:38.004Z,101844.55
2019-06-27T23:08:07.939Z,101842.14
2019-06-27T23:10:37.780Z,101845.03
2019-06-27T23:13:07.582Z,101850.31
2019-06-27T23:15:38.004Z,101841.79
2019-06-27T23:18:07.674Z,101835.81
2019-06-27T23:20:37.489Z,101841.19
2019-06-27T23:23:07.090Z,101843.89
2019-06-27T23:25:37.402Z,101844.49
2019-06-27T23:28:07.473Z,101839.47
2019-06-27T23:30:37.251Z,101840.04
2019-06-27T23:33:06.919Z,101830.34
2019-06-27T23:35:36.756Z,101834.56
2019-06-27T23:38:06.577Z,101834.93
2019-06-27T23:40:36.300Z,101837.66
2019-06-27T23:43:06.099Z,101831.62
2019-06-27T23:45:35.708Z,101827.17
2019-06-27T23:48:05.581Z,101820.05
2019-06-27T23:50:35.349Z,101825.17
2019-06-27T23:53:05.210Z,101823.30
2019-06-27T23:55:34.915Z,101815.00
2019-06-27T23:58:04.760Z,101817.79
